createdAt,value
2019-05-21T00:02:23.940Z,14.80
2019-05-21T00:04:54.112Z,14.80
2019-05-21T00:07:24.195Z,14.80
2019-05-21T00:09:54.103Z,14.80
2019-05-21T00:12:24.283Z,14.70
2019-05-21T00:14:54.606Z,14.80
2019-05-21T00:17:24.146Z,14.70
2019-05-21T00:19:53.979Z,14.80
2019-05-21T00:22:24.138Z,14.80
2019-05-21T00:24:53.965Z,14.80
2019-05-21T00:27:24.115Z,14.80
2019-05-21T00:30:29.477Z,14.80
2019-05-21T00:33:34.869Z,14.80
2019-05-21T00:36:41.749Z,14.80
2019-05-21T00:39:47.413Z,14.80
2019-05-21T00:42:24.279Z,14.80
2019-05-21T00:44:54.095Z,14.80
2019-05-21T00:47:24.391Z,14.70
2019-05-21T00:49:54.434Z,14.70
2019-05-21T00:52:23.988Z,14.80
2019-05-21T00:54:53.470Z,14.80
2019-05-21T00:57:22.973Z,14.80
2019-05-21T00:59:53.297Z,14.70
2019-05-21T01:02:23.560Z,14.80
2019-05-21T01:05:00.597Z,14.80
2019-05-21T01:07:25.054Z,14.80
2019-05-21T01:09:55.932Z,14.80
2019-05-21T01:12:25.510Z,14.70
2019-05-21T01:14:55.254Z,14.80
2019-05-21T01:17:25.747Z,14.80
2019-05-21T01:19:56.196Z,14.80
2019-05-21T01:22:26.687Z,14.80
2019-05-21T01:24:56.432Z,14.80
2019-05-21T01:27:26.746Z,14.80
2019-05-21T01:29:57.203Z,14.80
2019-05-21T01:32:27.103Z,14.80
2019-05-21T01:34:56.932Z,14.70
2019-05-21T01:37:26.530Z,14.70
2019-05-21T01:39:56.541Z,14.70
2019-05-21T01:42:26.343Z,14.70
2019-05-21T01:44:56.130Z,14.70
2019-05-21T01:47:26.022Z,14.70
2019-05-21T01:49:55.796Z,14.70
2019-05-21T01:52:26.285Z,14.70
2019-05-21T01:54:56.096Z,14.70
2019-05-21T01:57:26.072Z,14.70
2019-05-21T01:59:56.150Z,14.70
2019-05-21T02:02:25.950Z,14.70
2019-05-21T02:04:56.223Z,14.70
2019-05-21T02:07:26.160Z,14.70
2019-05-21T02:09:59.154Z,14.70
2019-05-21T02:12:28.866Z,14.70
2019-05-21T02:14:58.342Z,14.70
2019-05-21T02:17:28.019Z,14.70
2019-05-21T02:19:58.413Z,14.70
2019-05-21T02:22:28.310Z,14.70
2019-05-21T02:24:58.216Z,14.70
2019-05-21T02:27:27.722Z,14.70
2019-05-21T02:29:58.506Z,14.70
2019-05-21T02:32:28.278Z,14.70
2019-05-21T02:34:58.186Z,14.70
2019-05-21T02:37:28.296Z,14.60
2019-05-21T02:39:57.776Z,14.70
2019-05-21T02:42:27.698Z,14.70
2019-05-21T02:44:57.390Z,14.70
2019-05-21T02:47:27.989Z,14.70
2019-05-21T02:49:57.778Z,14.70
2019-05-21T02:52:27.727Z,14.70
2019-05-21T02:54:58.739Z,14.70
2019-05-21T02:57:39.560Z,14.70
2019-05-21T03:00:25.083Z,14.70
2019-05-21T03:02:55.239Z,14.70
2019-05-21T03:05:25.106Z,14.70
2019-05-21T03:07:54.945Z,14.70
2019-05-21T03:10:24.753Z,14.80
2019-05-21T03:12:54.611Z,14.80
2019-05-21T03:15:25.239Z,14.80
2019-05-21T03:17:54.666Z,14.90
2019-05-21T03:20:24.417Z,14.90
2019-05-21T03:22:54.828Z,14.80
2019-05-21T03:25:24.691Z,14.80
2019-05-21T03:27:54.392Z,14.80
2019-05-21T03:30:24.239Z,14.90
2019-05-21T03:32:54.061Z,15.10
2019-05-21T03:35:23.656Z,15.10
2019-05-21T03:37:54.449Z,15.20
2019-05-21T03:40:24.526Z,15.40
2019-05-21T03:42:54.372Z,15.70
2019-05-21T03:45:23.773Z,15.60
2019-05-21T03:47:53.424Z,15.60
2019-05-21T03:50:23.663Z,15.80
2019-05-21T03:52:53.461Z,15.80
2019-05-21T03:55:22.932Z,15.90
2019-05-21T03:57:52.706Z,15.80
2019-05-21T04:00:23.167Z,15.80
2019-05-21T04:02:53.341Z,15.90
2019-05-21T04:05:28.021Z,15.80
2019-05-21T04:07:57.451Z,15.90
2019-05-21T04:10:27.039Z,15.70
2019-05-21T04:13:10.080Z,15.90
2019-05-21T04:15:59.615Z,16.10
2019-05-21T04:18:35.734Z,16.30
2019-05-21T04:21:05.882Z,16.30
2019-05-21T04:23:35.753Z,16.70
2019-05-21T04:26:05.970Z,16.30
2019-05-21T04:28:35.752Z,16.60
2019-05-21T04:31:05.381Z,16.60
2019-05-21T04:33:35.857Z,16.70
2019-05-21T04:36:05.681Z,16.70
2019-05-21T04:38:35.578Z,16.50
2019-05-21T04:41:05.763Z,16.50
2019-05-21T04:43:35.661Z,16.50
2019-05-21T04:46:05.908Z,16.40
2019-05-21T04:48:35.859Z,16.40
2019-05-21T04:51:06.102Z,16.30
2019-05-21T04:53:36.334Z,16.50
2019-05-21T04:56:06.503Z,16.30
2019-05-21T04:58:36.400Z,16.20
2019-05-21T05:01:06.226Z,16.30
2019-05-21T05:03:36.191Z,16.60
2019-05-21T05:06:06.445Z,16.80
2019-05-21T05:08:36.752Z,17.10
2019-05-21T05:11:07.099Z,17.10
2019-05-21T05:13:37.248Z,17.40
2019-05-21T05:16:07.347Z,16.80
2019-05-21T05:18:37.127Z,17.50
2019-05-21T05:21:06.962Z,18.50
2019-05-21T05:23:36.840Z,20.10
2019-05-21T05:26:07.524Z,21.20
2019-05-21T05:28:37.805Z,20.80
2019-05-21T05:31:07.666Z,19.50
2019-05-21T05:33:37.843Z,18.70
2019-05-21T05:36:08.005Z,18.40
2019-05-21T05:38:37.751Z,18.80
2019-05-21T05:41:07.965Z,18.70
2019-05-21T05:43:38.627Z,18.70
2019-05-21T05:46:08.670Z,18.50
2019-05-21T05:48:44.977Z,18.70
2019-05-21T05:51:14.900Z,18.70
2019-05-21T05:53:59.889Z,19.00
2019-05-21T05:56:30.302Z,18.80
2019-05-21T05:59:00.332Z,18.70
2019-05-21T06:01:31.420Z,18.70
2019-05-21T06:04:01.493Z,19.00
2019-05-21T06:06:31.330Z,18.80
2019-05-21T06:09:02.227Z,19.00
2019-05-21T06:11:32.148Z,18.70
2019-05-21T06:14:02.147Z,18.80
2019-05-21T06:16:32.414Z,18.70
2019-05-21T06:19:02.586Z,19.00
2019-05-21T06:21:32.508Z,18.80
2019-05-21T06:24:02.134Z,18.50
2019-05-21T06:26:32.408Z,18.40
2019-05-21T06:29:02.621Z,18.60
2019-05-21T06:31:32.615Z,18.90
2019-05-21T06:34:02.932Z,19.30
2019-05-21T06:36:32.832Z,19.60
2019-05-21T06:39:03.175Z,19.50
2019-05-21T06:41:33.364Z,19.70
2019-05-21T06:44:10.671Z,19.20
2019-05-21T06:46:40.422Z,19.30
2019-05-21T06:49:10.471Z,19.40
2019-05-21T06:51:40.606Z,19.50
2019-05-21T06:54:10.929Z,19.80
2019-05-21T06:56:41.433Z,20.30
2019-05-21T06:59:11.393Z,20.10
2019-05-21T07:01:41.230Z,20.30
2019-05-21T07:04:11.416Z,20.00
2019-05-21T07:06:44.669Z,20.70
2019-05-21T07:09:12.948Z,20.60
2019-05-21T07:11:42.876Z,20.30
2019-05-21T07:14:12.728Z,20.30
2019-05-21T07:16:43.334Z,20.20
2019-05-21T07:19:13.386Z,20.60
2019-05-21T07:21:43.480Z,20.30
2019-05-21T07:24:13.888Z,21.10
2019-05-21T07:26:44.141Z,21.30
2019-05-21T07:29:15.502Z,21.40
2019-05-21T07:31:45.324Z,21.70
2019-05-21T07:34:16.295Z,21.60
2019-05-21T07:36:46.470Z,22.10
2019-05-21T07:39:16.498Z,21.50
2019-05-21T07:41:46.416Z,21.20
2019-05-21T07:44:16.002Z,21.00
2019-05-21T07:46:45.924Z,21.10
2019-05-21T07:49:16.039Z,20.60
2019-05-21T07:51:45.970Z,20.80
2019-05-21T07:54:15.778Z,20.50
2019-05-21T07:56:45.673Z,20.60
2019-05-21T07:59:15.835Z,20.70
2019-05-21T08:01:46.095Z,20.60
2019-05-21T08:04:16.009Z,21.40
2019-05-21T08:06:46.384Z,21.80
2019-05-21T08:09:16.626Z,22.20
2019-05-21T08:11:47.279Z,22.50
2019-05-21T08:14:17.291Z,22.50
2019-05-21T08:16:46.812Z,22.40
2019-05-21T08:19:17.161Z,22.20
2019-05-21T08:21:47.408Z,22.20
2019-05-21T08:24:18.526Z,21.70
2019-05-21T08:26:48.825Z,21.60
2019-05-21T08:29:21.917Z,21.80
2019-05-21T08:31:57.135Z,21.80
2019-05-21T08:34:27.832Z,21.90
2019-05-21T08:36:57.516Z,21.80
2019-05-21T08:39:29.290Z,21.50
2019-05-21T08:41:59.713Z,22.20
2019-05-21T08:44:30.219Z,22.50
2019-05-21T08:46:59.835Z,22.70
2019-05-21T08:49:30.107Z,22.70
2019-05-21T08:52:00.453Z,22.70
2019-05-21T08:54:55.843Z,22.90
2019-05-21T08:57:24.028Z,23.30
2019-05-21T08:59:54.404Z,23.50
2019-05-21T09:02:25.989Z,23.20
2019-05-21T09:04:56.133Z,23.30
2019-05-21T09:07:26.505Z,23.50
2019-05-21T09:09:56.794Z,23.40
2019-05-21T09:12:26.605Z,23.10
2019-05-21T09:14:57.059Z,22.70
2019-05-21T09:17:26.948Z,22.90
2019-05-21T09:19:57.803Z,22.90
2019-05-21T09:22:29.838Z,22.60
2019-05-21T09:24:59.428Z,22.10
2019-05-21T09:27:30.143Z,21.90
2019-05-21T09:30:00.823Z,21.70
2019-05-21T09:32:30.833Z,21.50
2019-05-21T09:35:01.501Z,21.30
2019-05-21T09:37:32.165Z,20.90
2019-05-21T09:40:02.315Z,20.70
2019-05-21T09:42:32.827Z,20.70
2019-05-21T09:45:02.518Z,20.70
2019-05-21T09:47:33.177Z,20.80
2019-05-21T09:50:03.693Z,20.90
2019-05-21T09:52:34.815Z,20.80
2019-05-21T09:55:05.803Z,20.60
2019-05-21T09:57:45.232Z,20.60
2019-05-21T10:00:38.389Z,20.60
2019-05-21T10:03:12.177Z,20.20
2019-05-21T10:05:43.180Z,20.00
2019-05-21T10:08:12.793Z,20.50
2019-05-21T10:10:43.663Z,20.90
2019-05-21T10:13:22.994Z,21.20
2019-05-21T10:15:55.550Z,21.40
2019-05-21T10:18:25.433Z,21.50
2019-05-21T10:20:56.240Z,21.30
2019-05-21T10:23:26.407Z,21.70
2019-05-21T10:25:56.669Z,22.20
2019-05-21T10:28:26.476Z,22.40
2019-05-21T10:30:57.159Z,21.80
2019-05-21T10:33:29.011Z,21.70
2019-05-21T10:35:59.125Z,22.10
2019-05-21T10:38:29.229Z,22.10
2019-05-21T10:41:00.245Z,21.80
2019-05-21T10:43:30.408Z,22.20
2019-05-21T10:46:00.448Z,22.10
2019-05-21T10:48:30.086Z,21.90
2019-05-21T10:51:00.306Z,22.20
2019-05-21T10:53:30.330Z,22.10
2019-05-21T10:56:00.371Z,22.30
2019-05-21T10:58:31.301Z,22.10
2019-05-21T11:01:20.302Z,22.10
2019-05-21T11:04:12.691Z,21.90
2019-05-21T11:06:43.618Z,22.10
2019-05-21T11:09:18.328Z,21.80
2019-05-21T11:11:48.786Z,22.50
2019-05-21T11:14:21.399Z,22.40
2019-05-21T11:16:52.060Z,22.60
2019-05-21T11:19:22.596Z,23.00
2019-05-21T11:21:54.860Z,22.90
2019-05-21T11:24:24.583Z,22.70
2019-05-21T11:26:54.620Z,22.40
2019-05-21T11:29:24.508Z,22.50
2019-05-21T11:31:57.476Z,22.60
2019-05-21T11:34:27.079Z,22.60
2019-05-21T11:36:57.492Z,22.50
2019-05-21T11:39:27.715Z,22.90
2019-05-21T11:41:57.312Z,23.00
2019-05-21T11:44:27.820Z,23.30
2019-05-21T11:46:57.837Z,22.80
2019-05-21T11:49:27.694Z,23.10
2019-05-21T11:51:57.398Z,23.10
2019-05-21T11:54:27.201Z,23.10
2019-05-21T11:56:57.144Z,22.90
2019-05-21T11:59:27.469Z,22.40
2019-05-21T12:01:58.318Z,22.40
2019-05-21T12:04:28.304Z,22.00
2019-05-21T12:07:03.038Z,22.10
2019-05-21T12:09:30.783Z,22.00
2019-05-21T12:12:03.440Z,21.90
2019-05-21T12:14:33.726Z,22.00
2019-05-21T12:17:04.218Z,22.10
2019-05-21T12:19:34.127Z,22.10
2019-05-21T12:22:04.579Z,22.10
2019-05-21T12:24:34.322Z,22.10
2019-05-21T12:27:04.812Z,22.10
2019-05-21T12:29:35.459Z,21.90
2019-05-21T12:32:05.738Z,21.60
2019-05-21T12:34:38.919Z,21.20
2019-05-21T12:37:07.776Z,20.90
2019-05-21T12:39:37.635Z,20.90
2019-05-21T12:42:08.042Z,20.90
2019-05-21T12:44:38.396Z,20.80
2019-05-21T12:47:10.346Z,21.10
2019-05-21T12:49:40.509Z,21.20
2019-05-21T12:52:10.757Z,21.20
2019-05-21T12:54:40.834Z,21.40
2019-05-21T12:57:10.858Z,21.30
2019-05-21T12:59:41.111Z,21.00
2019-05-21T13:02:11.183Z,20.90
2019-05-21T13:04:41.872Z,20.90
2019-05-21T13:07:11.948Z,21.10
2019-05-21T13:09:41.792Z,21.40
2019-05-21T13:12:12.571Z,21.70
2019-05-21T13:14:44.515Z,21.90
2019-05-21T13:17:14.885Z,22.00
2019-05-21T13:19:45.306Z,22.20
2019-05-21T13:22:14.792Z,22.30
2019-05-21T13:24:45.274Z,22.50
2019-05-21T13:27:15.013Z,22.60
2019-05-21T13:29:46.097Z,23.00
2019-05-21T13:32:15.969Z,22.70
2019-05-21T13:34:47.339Z,22.90
2019-05-21T13:37:17.104Z,22.50
2019-05-21T13:39:50.274Z,22.50
2019-05-21T13:42:18.704Z,22.50
2019-05-21T13:44:49.264Z,22.70
2019-05-21T13:47:19.172Z,22.70
2019-05-21T13:49:49.260Z,22.80
2019-05-21T13:52:19.166Z,22.50
2019-05-21T13:54:49.099Z,22.80
2019-05-21T13:57:19.276Z,22.80
2019-05-21T13:59:49.229Z,22.70
2019-05-21T14:02:18.926Z,22.60
2019-05-21T14:04:48.991Z,22.10
2019-05-21T14:07:19.745Z,22.10
2019-05-21T14:10:12.606Z,21.90
2019-05-21T14:12:24.412Z,21.90
2019-05-21T14:14:54.691Z,21.80
2019-05-21T14:17:24.525Z,21.60
2019-05-21T14:19:54.510Z,21.70
2019-05-21T14:22:24.792Z,21.70
2019-05-21T14:24:54.437Z,21.60
2019-05-21T14:27:24.749Z,21.60
2019-05-21T14:29:55.849Z,21.50
2019-05-21T14:32:26.423Z,21.60
2019-05-21T14:35:01.131Z,21.70
2019-05-21T14:37:27.980Z,21.60
2019-05-21T14:39:57.778Z,21.50
2019-05-21T14:42:32.212Z,21.80
2019-05-21T14:45:02.472Z,21.90
2019-05-21T14:47:32.977Z,21.40
2019-05-21T14:50:02.928Z,21.80
2019-05-21T14:52:34.891Z,21.90
2019-05-21T14:55:05.127Z,21.60
2019-05-21T14:57:34.787Z,21.80
2019-05-21T15:00:07.726Z,21.80
2019-05-21T15:02:39.005Z,22.00
2019-05-21T15:05:09.037Z,22.10
2019-05-21T15:07:38.744Z,22.00
2019-05-21T15:10:08.169Z,22.10
2019-05-21T15:12:38.467Z,22.20
2019-05-21T15:15:09.130Z,22.60
2019-05-21T15:17:40.986Z,22.60
2019-05-21T15:20:17.162Z,22.50
2019-05-21T15:22:47.104Z,22.60
2019-05-21T15:25:16.747Z,23.00
2019-05-21T15:27:46.287Z,23.10
2019-05-21T15:30:16.355Z,23.20
2019-05-21T15:32:46.480Z,23.10
2019-05-21T15:35:16.788Z,22.90
2019-05-21T15:37:47.333Z,22.60
2019-05-21T15:40:17.582Z,22.40
2019-05-21T15:42:52.487Z,22.20
2019-05-21T15:45:20.058Z,22.20
2019-05-21T15:47:51.511Z,22.00
2019-05-21T15:50:21.228Z,21.90
2019-05-21T15:52:50.998Z,21.80
2019-05-21T15:55:20.915Z,21.80
2019-05-21T15:57:51.361Z,22.00
2019-05-21T16:00:22.431Z,22.30
2019-05-21T16:02:52.390Z,22.40
2019-05-21T16:05:23.192Z,22.30
2019-05-21T16:07:53.709Z,22.20
2019-05-21T16:10:24.277Z,22.40
2019-05-21T16:12:57.038Z,22.60
2019-05-21T16:15:28.466Z,22.70
2019-05-21T16:17:58.392Z,22.70
2019-05-21T16:20:28.930Z,22.60
2019-05-21T16:22:59.080Z,22.60
2019-05-21T16:25:29.236Z,22.70
2019-05-21T16:28:00.151Z,22.30
2019-05-21T16:30:30.547Z,22.00
2019-05-21T16:33:02.698Z,22.10
2019-05-21T16:35:33.659Z,22.00
2019-05-21T16:38:04.695Z,22.00
2019-05-21T16:40:34.662Z,22.00
2019-05-21T16:43:05.095Z,22.20
2019-05-21T16:45:35.657Z,22.00
2019-05-21T16:48:05.358Z,21.70
2019-05-21T16:50:36.029Z,22.00
2019-05-21T16:53:06.357Z,21.80
2019-05-21T16:55:36.769Z,21.70
2019-05-21T16:58:06.877Z,20.80
2019-05-21T17:00:37.413Z,20.50
2019-05-21T17:03:07.535Z,20.70
2019-05-21T17:05:37.480Z,21.20
2019-05-21T17:08:07.839Z,21.20
2019-05-21T17:10:37.798Z,21.00
2019-05-21T17:13:08.368Z,21.20
2019-05-21T17:15:38.352Z,21.40
2019-05-21T17:18:08.199Z,21.50
2019-05-21T17:20:38.293Z,21.50
2019-05-21T17:23:08.618Z,21.90
2019-05-21T17:25:39.294Z,21.30
2019-05-21T17:28:09.542Z,21.10
2019-05-21T17:30:40.162Z,21.30
2019-05-21T17:33:10.024Z,21.10
2019-05-21T17:35:40.907Z,21.50
2019-05-21T17:38:11.525Z,21.10
2019-05-21T17:40:41.143Z,21.10
2019-05-21T17:43:11.454Z,21.50
2019-05-21T17:45:43.792Z,21.00
2019-05-21T17:48:13.716Z,20.90
2019-05-21T17:50:43.867Z,20.70
2019-05-21T17:53:14.565Z,20.70
2019-05-21T17:55:44.117Z,20.60
2019-05-21T17:58:14.407Z,19.90
2019-05-21T18:00:48.422Z,19.60
2019-05-21T18:03:19.119Z,19.30
2019-05-21T18:05:49.918Z,19.20
2019-05-21T18:08:20.796Z,18.90
2019-05-21T18:10:51.498Z,18.80
2019-05-21T18:13:22.236Z,18.70
2019-05-21T18:15:52.347Z,18.70
2019-05-21T18:18:24.111Z,18.50
2019-05-21T18:20:57.408Z,18.20
2019-05-21T18:23:27.837Z,18.20
2019-05-21T18:25:58.519Z,18.00
2019-05-21T18:28:29.961Z,18.00
2019-05-21T18:31:00.651Z,17.90
2019-05-21T18:33:30.537Z,17.70
2019-05-21T18:36:01.077Z,17.60
2019-05-21T18:38:31.299Z,17.50
2019-05-21T18:41:01.256Z,17.40
2019-05-21T18:43:31.970Z,17.40
2019-05-21T18:46:01.447Z,17.50
2019-05-21T18:48:31.500Z,17.20
2019-05-21T18:51:00.952Z,17.10
2019-05-21T18:53:30.512Z,17.00
2019-05-21T18:56:00.444Z,16.90
2019-05-21T18:58:30.199Z,16.90
2019-05-21T19:01:00.351Z,16.70
2019-05-21T19:03:29.824Z,16.70
2019-05-21T19:06:02.164Z,16.60
2019-05-21T19:08:32.443Z,16.50
2019-05-21T19:11:03.064Z,16.60
2019-05-21T19:13:32.672Z,16.40
2019-05-21T19:16:03.668Z,16.40
2019-05-21T19:18:33.182Z,16.30
2019-05-21T19:21:02.984Z,16.20
2019-05-21T19:23:32.878Z,16.20
2019-05-21T19:26:02.482Z,16.00
2019-05-21T19:28:31.880Z,16.00
2019-05-21T19:31:02.383Z,15.90
2019-05-21T19:33:33.437Z,15.80
2019-05-21T19:36:04.089Z,15.70
2019-05-21T19:38:37.163Z,15.80
2019-05-21T19:41:05.714Z,15.60
2019-05-21T19:43:35.203Z,15.80
2019-05-21T19:46:05.822Z,15.50
2019-05-21T19:48:35.583Z,15.50
2019-05-21T19:51:05.082Z,15.40
2019-05-21T19:53:35.391Z,15.30
2019-05-21T19:56:05.896Z,15.30
2019-05-21T19:58:36.109Z,15.20
2019-05-21T20:01:06.500Z,15.20
2019-05-21T20:03:37.163Z,15.00
2019-05-21T20:06:07.608Z,15.00
2019-05-21T20:08:37.615Z,15.00
2019-05-21T20:11:08.055Z,14.90
2019-05-21T20:13:38.225Z,14.90
2019-05-21T20:16:10.430Z,14.70
2019-05-21T20:18:40.538Z,14.70
2019-05-21T20:21:11.236Z,14.60
2019-05-21T20:23:41.974Z,14.60
2019-05-21T20:26:18.664Z,14.60
2019-05-21T20:28:48.786Z,14.60
2019-05-21T20:31:19.215Z,14.40
2019-05-21T20:33:52.282Z,14.40
2019-05-21T20:36:22.524Z,14.40
2019-05-21T20:38:53.320Z,14.30
2019-05-21T20:41:24.116Z,14.30
2019-05-21T20:43:58.936Z,14.20
2019-05-21T20:46:25.744Z,14.20
2019-05-21T20:48:57.218Z,14.10
2019-05-21T20:51:27.054Z,14.10
2019-05-21T20:53:57.046Z,14.10
2019-05-21T20:56:27.765Z,14.10
2019-05-21T20:58:57.924Z,14.00
2019-05-21T21:01:28.631Z,14.00
2019-05-21T21:03:59.026Z,13.90
2019-05-21T21:06:35.304Z,14.00
2019-05-21T21:09:02.052Z,14.00
2019-05-21T21:11:32.344Z,13.90
2019-05-21T21:14:17.040Z,13.90
2019-05-21T21:16:34.478Z,13.90
2019-05-21T21:19:04.935Z,13.90
2019-05-21T21:21:35.949Z,13.90
2019-05-21T21:24:06.532Z,13.90
2019-05-21T21:26:37.234Z,13.90
2019-05-21T21:29:07.735Z,13.90
2019-05-21T21:31:38.393Z,13.90
2019-05-21T21:34:09.234Z,13.80
2019-05-21T21:36:39.661Z,13.70
2019-05-21T21:39:11.041Z,13.70
2019-05-21T21:41:41.494Z,13.70
2019-05-21T21:44:12.613Z,13.70
2019-05-21T21:46:42.989Z,13.70
2019-05-21T21:49:13.520Z,13.70
2019-05-21T21:51:43.423Z,13.50
2019-05-21T21:54:14.090Z,13.60
2019-05-21T21:56:43.858Z,13.50
2019-05-21T21:59:13.681Z,13.50
2019-05-21T22:01:57.894Z,13.50
2019-05-21T22:04:34.398Z,13.50
2019-05-21T22:07:05.341Z,13.50
2019-05-21T22:09:37.688Z,13.40
2019-05-21T22:12:10.126Z,13.40
2019-05-21T22:14:50.249Z,13.40
2019-05-21T22:17:15.065Z,13.30
2019-05-21T22:19:45.582Z,13.40
2019-05-21T22:22:16.074Z,13.30
2019-05-21T22:24:46.239Z,13.20
2019-05-21T22:27:16.054Z,13.20
2019-05-21T22:29:45.881Z,13.20
2019-05-21T22:32:16.824Z,13.30
2019-05-21T22:34:47.069Z,13.10
2019-05-21T22:37:20.853Z,13.10
2019-05-21T22:39:51.090Z,13.10
2019-05-21T22:42:21.132Z,13.10
2019-05-21T22:45:06.783Z,13.00
2019-05-21T22:47:23.087Z,13.00
2019-05-21T22:49:53.273Z,12.90
2019-05-21T22:52:23.543Z,13.00
2019-05-21T22:54:53.334Z,12.90
2019-05-21T22:57:26.189Z,12.90
2019-05-21T22:59:55.400Z,12.90
2019-05-21T23:02:30.188Z,12.80
2019-05-21T23:05:00.047Z,12.80
2019-05-21T23:07:29.574Z,12.80
2019-05-21T23:09:59.288Z,12.80
2019-05-21T23:12:30.591Z,12.80
2019-05-21T23:15:00.807Z,12.80
2019-05-21T23:17:30.453Z,12.80
2019-05-21T23:20:01.458Z,12.70
2019-05-21T23:22:31.866Z,12.70
2019-05-21T23:25:02.572Z,12.70
2019-05-21T23:27:32.083Z,12.70
2019-05-21T23:30:02.584Z,12.60
2019-05-21T23:32:32.362Z,12.60
2019-05-21T23:35:01.870Z,12.60
2019-05-21T23:37:33.294Z,12.60
2019-05-21T23:40:04.344Z,12.50
2019-05-21T23:42:34.092Z,12.50
2019-05-21T23:45:04.662Z,12.50
2019-05-21T23:47:35.545Z,12.50
2019-05-21T23:50:06.204Z,12.50
2019-05-21T23:52:37.423Z,12.50
2019-05-21T23:55:09.207Z,12.50
2019-05-21T23:57:40.455Z,12.40
